Sunday, September 23, 2018, 4:33 AM GMT
Back to Local

CWIG, Ile Aux Grues, Que.

Location: , , Canada Lat: 47.067
Local Time: 4:33 AM GMT ( 4:33 GMT) Lon: -70.533
Time Zone: GMT Elev: 59 ft

Show me the last for .
Show Coded

Time T Td Feel RH Dir Speed Gust Alt SLP Vis Weather Sky Remarks
2018-09-23 04:00 - - - 0 200° 12 - - - 0 None
2018-09-23 03:00 - - - 0 200° 10 - - - 0 None
2018-09-23 02:00 - - - 0 260° 10 - - - 0 None
2018-09-23 01:00 - - - 0 260° 9 - - - 0 Peak wind: 19 mph (17 kts) from 240° at 02 min
2018-09-23 00:00 - - - 0 260° 14 21 - - 0 Peak wind: 21 mph (19 kts) from 240° at 29 min
2018-09-22 23:00 - - - 0 260° 13 - - - 0 Peak wind: 23 mph (20 kts) from 240° at 29 min
2018-09-22 22:00 - - - 0 240° 17 23 - - 0 Peak wind: 23 mph (20 kts) from 240° at 34 min
2018-09-22 21:00 - - - 0 240° 15 21 - - 0 Peak wind: 23 mph (20 kts) from 220° at 37 min
2018-09-22 20:00 - - - 0 240° 14 21 - - 0 Peak wind: 24 mph (21 kts) from 250° at 05 min
2018-09-22 19:00 - - - 0 240° 17 - - - 0 Peak wind: 24 mph (21 kts) from 250° at 07 min
2018-09-22 18:00 - - - 0 260° 14 20 - - 0 Peak wind: 24 mph (21 kts) from 250° at 36 min
2018-09-22 17:00 - - - 0 250° 15 21 - - 0 Peak wind: 23 mph (20 kts) from 240° at 00 min
2018-09-22 16:00 - - - 0 250° 16 - - - 0 Peak wind: 21 mph (19 kts) from 260° at 49 min
2018-09-22 15:00 - - - 0 270° 13 20 - - 0 Peak wind: 19 mph (17 kts) from 260° at 57 min
2018-09-22 14:00 - - - 0 280° 9 - - - 0 None
2018-09-22 13:00 - - - 0 280° 8 - - - 0 Peak wind: 26 mph (23 kts) from 320° at 21 min
2018-09-22 12:00 - - - 0 300° 10 17 - - 0 Peak wind: 23 mph (20 kts) from 250° at 00 min
2018-09-22 11:00 - - - 0 280° 15 26 - - 0 Peak wind: 32 mph (28 kts) from 260° at 07 min
2018-09-22 10:00 - - - 0 280° 22 36 - - 0 Peak wind: 47 mph (41 kts) from 280° at 34 min
2018-09-22 09:00 - - - 0 280° 22 37 - - 0 Peak wind: 43 mph (38 kts) from 270° at 05 min
2018-09-22 08:00 - - - 0 270° 23 31 - - 0 Peak wind: 35 mph (31 kts) from 260° at 23 min
2018-09-22 07:00 - - - 0 240° 25 33 - - 0 Peak wind: 37 mph (33 kts) from 230° at 04 min
2018-09-22 06:00 - - - 0 230° 30 41 - - 0 Peak wind: 51 mph (45 kts) from 260° at 25 min
2018-09-22 05:00 - - - 0 220° 26 37 - - 0 Peak wind: 44 mph (39 kts) from 220° at 34 min

Support USWX by starting your Amazon purchase here.